Terminal Aerodrome Forecast
Issued by NWS

Home | Current Version | Previous Version | Text Only | Print | Product List | Glossary On
Versions: 1 2 3 4 5 6 7 8 9 10 11 12 13 14 15 16 17 18 19
000
FTUS44 KLZK 190000 AAA
TAFPBF
TAF AMD
KPBF 190006Z 1900/1924 12008KT P6SM VCSH SCT020
      TEMPO 1900/1902 BKN020
     FM190200 VRB03KT P6SM SCT100 BKN250
     FM190600 VRB03KT 4SM BR SCT012 BKN020
      TEMPO 1909/1913 1SM BR BKN012
     FM191400 22004KT P6SM BKN015
     FM191700 20007KT P6SM SCT030 BKN250 PROB30 1920/1924 3SM TSRA
      BR BKN020CB=

USA.gov is the U.S. government's official web portal to all federal, state and local government web resources and services.